CPA455 RCKH-VHHH
Flight info
| Callsign | CPA455 |
|---|---|
| Flight time | N/A |
| Altitude | 32000 |
| Route | PARAS2A PARAS T7 WP521 G581 ELATO V522 ABBEY ABBEY3B |
| Aircraft | A359/H-SDE2E3GHIJ3J4J5LM1ORWXY/LB1D1 |
Departure
| Time | 2026-04-29 12:45 |
|---|---|
| Airport | Kaohsiung International Airport (RCKH) |
Arrival
| Time | N/A |
|---|---|
| Airport | Hong Kong International Airport (VHHH) |
| Time | Latitude | Longitude | Altitude | Speed | Heading |
|---|---|---|---|---|---|
| 2026-04-29 12:28 | 22.57266 | 120.34234 | 45 ft | 0 kts | 271° |
| 2026-04-29 12:35 | 22.57266 | 120.34248 | 45 ft | 2 kts | 269° |
| 2026-04-29 12:36 | 22.57267 | 120.34266 | 45 ft | 2 kts | 266° |
| 2026-04-29 12:36 | 22.57268 | 120.34284 | 45 ft | 2 kts | 262° |
| 2026-04-29 12:36 | 22.57272 | 120.34302 | 43 ft | 2 kts | 252° |
| 2026-04-29 12:36 | 22.57278 | 120.34318 | 41 ft | 2 kts | 227° |
| 2026-04-29 12:37 | 22.57293 | 120.34326 | 41 ft | 2 kts | 185° |
| 2026-04-29 12:37 | 22.57309 | 120.34327 | 42 ft | 2 kts | 181° |
| 2026-04-29 12:37 | 22.57325 | 120.34327 | 42 ft | 2 kts | 180° |
| 2026-04-29 12:37 | 22.57342 | 120.34327 | 42 ft | 2 kts | 180° |
| 2026-04-29 12:38 | 22.57358 | 120.34327 | 43 ft | 2 kts | 181° |
| 2026-04-29 12:38 | 22.57374 | 120.34330 | 42 ft | 2 kts | 219° |
| 2026-04-29 12:38 | 22.57386 | 120.34343 | 41 ft | 2 kts | 234° |
| 2026-04-29 12:38 | 22.57394 | 120.34358 | 41 ft | 2 kts | 245° |
| 2026-04-29 12:39 | 22.57399 | 120.34375 | 39 ft | 2 kts | 259° |
| 2026-04-29 12:39 | 22.57400 | 120.34380 | 39 ft | 0 kts | 265° |
| 2026-04-29 12:41 | 22.57400 | 120.34373 | 39 ft | 4 kts | 269° |
| 2026-04-29 12:41 | 22.57403 | 120.34300 | 45 ft | 13 kts | 272° |
| 2026-04-29 12:41 | 22.57406 | 120.34185 | 45 ft | 18 kts | 272° |
| 2026-04-29 12:41 | 22.57410 | 120.34040 | 45 ft | 20 kts | 272° |
| 2026-04-29 12:42 | 22.57417 | 120.33822 | 44 ft | 23 kts | 271° |
| 2026-04-29 12:42 | 22.57422 | 120.33716 | 44 ft | 19 kts | 282° |
| 2026-04-29 12:42 | 22.57499 | 120.33627 | 44 ft | 16 kts | 318° |
| 2026-04-29 12:42 | 22.57576 | 120.33539 | 44 ft | 14 kts | 317° |
| 2026-04-29 12:43 | 22.57640 | 120.33506 | 44 ft | 3 kts | 356° |
| 2026-04-29 12:43 | 22.57641 | 120.33505 | 44 ft | 0 kts | 356° |
| 2026-04-29 12:44 | 22.57683 | 120.33505 | 44 ft | 14 kts | 2° |
| 2026-04-29 12:44 | 22.57750 | 120.33561 | 43 ft | 14 kts | 77° |
| 2026-04-29 12:44 | 22.57748 | 120.33678 | 44 ft | 17 kts | 92° |
| 2026-04-29 12:44 | 22.57741 | 120.33916 | 45 ft | 64 kts | 92° |
| 2026-04-29 12:45 | 22.57716 | 120.34732 | 46 ft | 150 kts | 92° |
| 2026-04-29 12:45 | 22.57676 | 120.36031 | 583 ft | 177 kts | 92° |
| 2026-04-29 12:45 | 22.57632 | 120.37373 | 1630 ft | 188 kts | 94° |
| 2026-04-29 12:45 | 22.57244 | 120.38837 | 2340 ft | 216 kts | 122° |
| 2026-04-29 12:46 | 22.56066 | 120.39838 | 3482 ft | 218 kts | 162° |
| 2026-04-29 12:46 | 22.54593 | 120.39832 | 4563 ft | 215 kts | 199° |
| 2026-04-29 12:46 | 22.53388 | 120.38891 | 5314 ft | 219 kts | 227° |
| 2026-04-29 12:46 | 22.52399 | 120.37642 | 6091 ft | 223 kts | 229° |
| 2026-04-29 12:47 | 22.51362 | 120.36360 | 6707 ft | 230 kts | 230° |
| 2026-04-29 12:47 | 22.50429 | 120.34847 | 7052 ft | 255 kts | 239° |
| 2026-04-29 12:47 | 22.49535 | 120.33118 | 7594 ft | 269 kts | 241° |
| 2026-04-29 12:47 | 22.48643 | 120.31314 | 8341 ft | 275 kts | 242° |
| 2026-04-29 12:48 | 22.47743 | 120.29471 | 9092 ft | 279 kts | 242° |
| 2026-04-29 12:48 | 22.46831 | 120.27595 | 9873 ft | 284 kts | 242° |
| 2026-04-29 12:48 | 22.45902 | 120.25682 | 10489 ft | 295 kts | 242° |
| 2026-04-29 12:48 | 22.44915 | 120.23647 | 10820 ft | 315 kts | 242° |
| 2026-04-29 12:49 | 22.43877 | 120.21505 | 11279 ft | 327 kts | 242° |
| 2026-04-29 12:49 | 22.42826 | 120.19332 | 11919 ft | 332 kts | 242° |
| 2026-04-29 12:49 | 22.41749 | 120.17107 | 12572 ft | 336 kts | 242° |
| 2026-04-29 12:49 | 22.40655 | 120.14849 | 13234 ft | 340 kts | 242° |
| 2026-04-29 12:50 | 22.39556 | 120.12584 | 13854 ft | 344 kts | 242° |
| 2026-04-29 12:50 | 22.38435 | 120.10273 | 14485 ft | 347 kts | 242° |
| 2026-04-29 12:50 | 22.37307 | 120.07951 | 15120 ft | 351 kts | 242° |
| 2026-04-29 12:50 | 22.36172 | 120.05615 | 15738 ft | 354 kts | 242° |
| 2026-04-29 12:51 | 22.35017 | 120.03240 | 16371 ft | 357 kts | 242° |
| 2026-04-29 12:51 | 22.33861 | 120.00865 | 16943 ft | 361 kts | 242° |
| 2026-04-29 12:51 | 22.32685 | 119.98447 | 17541 ft | 364 kts | 242° |
| 2026-04-29 12:51 | 22.31501 | 119.96016 | 18107 ft | 367 kts | 242° |
| 2026-04-29 12:52 | 22.30309 | 119.93569 | 18660 ft | 371 kts | 242° |
| 2026-04-29 12:52 | 22.29102 | 119.91093 | 19208 ft | 374 kts | 242° |
| 2026-04-29 12:52 | 22.27884 | 119.88596 | 19732 ft | 377 kts | 242° |
| 2026-04-29 12:52 | 22.26659 | 119.86084 | 20257 ft | 380 kts | 242° |
| 2026-04-29 12:53 | 22.25420 | 119.83547 | 20760 ft | 383 kts | 242° |
| 2026-04-29 12:53 | 22.24169 | 119.80985 | 21260 ft | 386 kts | 242° |
| 2026-04-29 12:53 | 22.22910 | 119.78409 | 21737 ft | 389 kts | 242° |
| 2026-04-29 12:53 | 22.21667 | 119.75848 | 22189 ft | 392 kts | 243° |
| 2026-04-29 12:54 | 22.20633 | 119.73109 | 22650 ft | 395 kts | 251° |
| 2026-04-29 12:54 | 22.19859 | 119.70263 | 23103 ft | 398 kts | 255° |
| 2026-04-29 12:54 | 22.19197 | 119.67344 | 23555 ft | 401 kts | 257° |
| 2026-04-29 12:54 | 22.18591 | 119.64401 | 24003 ft | 403 kts | 257° |
| 2026-04-29 12:55 | 22.17996 | 119.61436 | 24436 ft | 406 kts | 257° |
| 2026-04-29 12:55 | 22.17388 | 119.58445 | 24866 ft | 409 kts | 257° |
| 2026-04-29 12:55 | 22.16763 | 119.55441 | 25293 ft | 412 kts | 257° |
| 2026-04-29 12:55 | 22.16250 | 119.52391 | 25708 ft | 415 kts | 263° |
| 2026-04-29 12:56 | 22.16023 | 119.49277 | 26136 ft | 418 kts | 266° |
| 2026-04-29 12:56 | 22.15880 | 119.46139 | 26565 ft | 421 kts | 267° |
| 2026-04-29 12:56 | 22.15783 | 119.42972 | 26999 ft | 424 kts | 268° |
| 2026-04-29 12:56 | 22.15708 | 119.39785 | 27437 ft | 427 kts | 268° |
| 2026-04-29 12:57 | 22.15637 | 119.36572 | 27894 ft | 430 kts | 268° |
| 2026-04-29 12:57 | 22.15564 | 119.33336 | 28350 ft | 433 kts | 268° |
| 2026-04-29 12:57 | 22.15484 | 119.30072 | 28805 ft | 436 kts | 268° |
| 2026-04-29 12:57 | 22.15399 | 119.26791 | 29254 ft | 439 kts | 268° |
| 2026-04-29 12:58 | 22.15310 | 119.23531 | 29698 ft | 442 kts | 268° |
| 2026-04-29 12:58 | 22.15220 | 119.20304 | 30137 ft | 445 kts | 268° |
| 2026-04-29 12:58 | 22.15122 | 119.16877 | 30607 ft | 448 kts | 268° |
| 2026-04-29 12:58 | 22.15025 | 119.13495 | 31073 ft | 451 kts | 268° |
| 2026-04-29 12:59 | 22.14959 | 119.10100 | 31525 ft | 455 kts | 271° |
| 2026-04-29 12:59 | 22.15197 | 119.06686 | 31890 ft | 458 kts | 275° |
| 2026-04-29 12:59 | 22.15556 | 119.03315 | 31047 ft | 439 kts | 275° |
| 2026-04-29 12:59 | 22.15958 | 119.00127 | 31613 ft | 426 kts | 275° |
| 2026-04-29 13:00 | 22.16371 | 118.96932 | 31923 ft | 433 kts | 275° |
| 2026-04-29 13:00 | 22.16787 | 118.93667 | 31971 ft | 446 kts | 275° |
| 2026-04-29 13:00 | 22.17193 | 118.90344 | 31964 ft | 457 kts | 275° |
| 2026-04-29 13:01 | 22.17998 | 118.83638 | 31978 ft | 446 kts | 275° |
| 2026-04-29 13:01 | 22.18782 | 118.77015 | 31981 ft | 445 kts | 275° |
| 2026-04-29 13:02 | 22.19564 | 118.70385 | 31971 ft | 445 kts | 275° |
| 2026-04-29 13:02 | 22.20347 | 118.63741 | 31973 ft | 446 kts | 275° |
| 2026-04-29 13:03 | 22.21129 | 118.57090 | 31974 ft | 447 kts | 275° |
| 2026-04-29 13:03 | 22.21909 | 118.50465 | 31971 ft | 447 kts | 275° |
| 2026-04-29 13:04 | 22.22691 | 118.43799 | 31970 ft | 448 kts | 275° |
| 2026-04-29 13:04 | 22.23465 | 118.37127 | 31972 ft | 448 kts | 275° |
| 2026-04-29 13:05 | 22.24247 | 118.30350 | 31969 ft | 459 kts | 275° |
| 2026-04-29 13:05 | 22.25042 | 118.23469 | 31969 ft | 462 kts | 275° |
| 2026-04-29 13:06 | 22.25830 | 118.16635 | 31969 ft | 462 kts | 275° |
| 2026-04-29 13:06 | 22.26624 | 118.09727 | 31968 ft | 463 kts | 275° |
| 2026-04-29 13:07 | 22.27388 | 118.02823 | 31967 ft | 463 kts | 275° |
| 2026-04-29 13:07 | 22.28144 | 117.95912 | 31969 ft | 464 kts | 275° |
| 2026-04-29 13:08 | 22.28931 | 117.88992 | 31970 ft | 464 kts | 275° |
| 2026-04-29 13:08 | 22.29723 | 117.82069 | 31968 ft | 465 kts | 275° |
| 2026-04-29 13:09 | 22.30514 | 117.75122 | 31968 ft | 465 kts | 275° |
| 2026-04-29 13:09 | 22.31293 | 117.68232 | 31970 ft | 465 kts | 275° |
| 2026-04-29 13:10 | 22.32075 | 117.61283 | 31971 ft | 465 kts | 275° |
| 2026-04-29 13:10 | 22.32853 | 117.54353 | 31973 ft | 465 kts | 275° |
| 2026-04-29 13:11 | 22.33275 | 117.47391 | 31972 ft | 463 kts | 269° |
| 2026-04-29 13:11 | 22.33223 | 117.40436 | 31974 ft | 463 kts | 268° |
| 2026-04-29 13:12 | 22.33081 | 117.33506 | 31975 ft | 463 kts | 268° |
| 2026-04-29 13:12 | 22.32928 | 117.26546 | 31976 ft | 463 kts | 268° |
| 2026-04-29 13:13 | 22.32787 | 117.19592 | 31975 ft | 463 kts | 268° |
| 2026-04-29 13:13 | 22.32654 | 117.12679 | 31975 ft | 463 kts | 268° |
| 2026-04-29 13:14 | 22.32519 | 117.05713 | 31973 ft | 463 kts | 268° |
| 2026-04-29 13:14 | 22.32380 | 116.98749 | 31975 ft | 463 kts | 268° |
| 2026-04-29 13:15 | 22.32237 | 116.91790 | 31976 ft | 464 kts | 268° |
| 2026-04-29 13:15 | 22.32091 | 116.84817 | 31976 ft | 464 kts | 268° |
| 2026-04-29 13:16 | 22.31943 | 116.77895 | 31976 ft | 465 kts | 268° |
| 2026-04-29 13:16 | 22.31791 | 116.70915 | 31977 ft | 465 kts | 268° |
| 2026-04-29 13:17 | 22.31636 | 116.63922 | 31978 ft | 465 kts | 268° |
| 2026-04-29 13:17 | 22.31479 | 116.56932 | 31975 ft | 465 kts | 268° |
| 2026-04-29 13:18 | 22.31318 | 116.49935 | 31973 ft | 465 kts | 268° |
| 2026-04-29 13:18 | 22.31155 | 116.42980 | 31979 ft | 465 kts | 267° |
| 2026-04-29 13:19 | 22.30988 | 116.35978 | 31974 ft | 465 kts | 267° |
| 2026-04-29 13:19 | 22.30819 | 116.29017 | 31972 ft | 466 kts | 267° |
| 2026-04-29 13:20 | 22.30645 | 116.21984 | 31973 ft | 466 kts | 267° |
| 2026-04-29 13:20 | 22.30470 | 116.15031 | 31974 ft | 466 kts | 267° |
| 2026-04-29 13:21 | 22.30291 | 116.08041 | 31976 ft | 466 kts | 267° |
| 2026-04-29 13:21 | 22.30109 | 116.01043 | 31971 ft | 466 kts | 267° |
| 2026-04-29 13:22 | 22.29924 | 115.94056 | 31920 ft | 466 kts | 267° |
| 2026-04-29 13:22 | 22.29831 | 115.90563 | 31703 ft | 465 kts | 267° |
| 2026-04-29 13:22 | 22.29736 | 115.87063 | 31466 ft | 466 kts | 267° |
| 2026-04-29 13:22 | 22.29640 | 115.83559 | 31135 ft | 467 kts | 267° |
| 2026-04-29 13:23 | 22.29545 | 115.80054 | 30590 ft | 467 kts | 267° |
| 2026-04-29 13:23 | 22.29451 | 115.76544 | 29939 ft | 469 kts | 267° |
| 2026-04-29 13:23 | 22.29358 | 115.73021 | 29208 ft | 470 kts | 267° |
| 2026-04-29 13:23 | 22.29265 | 115.69489 | 28534 ft | 471 kts | 267° |
| 2026-04-29 13:24 | 22.29175 | 115.65954 | 27865 ft | 468 kts | 267° |
| 2026-04-29 13:24 | 22.29083 | 115.62454 | 27216 ft | 463 kts | 267° |
| 2026-04-29 13:24 | 22.28991 | 115.59054 | 26575 ft | 455 kts | 267° |
| 2026-04-29 13:24 | 22.28898 | 115.55667 | 25913 ft | 447 kts | 267° |
| 2026-04-29 13:25 | 22.28805 | 115.52338 | 25266 ft | 440 kts | 267° |
| 2026-04-29 13:25 | 22.28652 | 115.46917 | 24210 ft | 428 kts | 267° |
| 2026-04-29 13:25 | 22.28560 | 115.43709 | 23571 ft | 422 kts | 267° |
| 2026-04-29 13:26 | 22.28441 | 115.39550 | 22638 ft | 413 kts | 267° |
| 2026-04-29 13:26 | 22.28379 | 115.37469 | 22203 ft | 408 kts | 267° |
| 2026-04-29 13:26 | 22.28292 | 115.34466 | 21585 ft | 400 kts | 267° |
| 2026-04-29 13:26 | 22.28178 | 115.30514 | 21058 ft | 387 kts | 267° |
| 2026-04-29 13:27 | 22.28119 | 115.28607 | 20696 ft | 382 kts | 267° |
| 2026-04-29 13:27 | 22.28030 | 115.25736 | 19819 ft | 384 kts | 267° |
| 2026-04-29 13:27 | 22.27939 | 115.22852 | 19126 ft | 381 kts | 267° |
| 2026-04-29 13:27 | 22.27849 | 115.20010 | 18505 ft | 376 kts | 268° |
| 2026-04-29 13:28 | 22.27761 | 115.17200 | 17835 ft | 372 kts | 268° |
| 2026-04-29 13:28 | 22.27678 | 115.14429 | 17207 ft | 366 kts | 268° |
| 2026-04-29 13:28 | 22.27596 | 115.11707 | 16605 ft | 361 kts | 267° |
| 2026-04-29 13:28 | 22.27512 | 115.09026 | 16007 ft | 358 kts | 267° |
| 2026-04-29 13:29 | 22.27428 | 115.06352 | 15414 ft | 354 kts | 267° |
| 2026-04-29 13:29 | 22.27343 | 115.03701 | 14834 ft | 352 kts | 267° |
| 2026-04-29 13:29 | 22.27261 | 115.01072 | 14237 ft | 349 kts | 267° |
| 2026-04-29 13:29 | 22.27181 | 114.98460 | 13630 ft | 347 kts | 266° |
| 2026-04-29 13:30 | 22.27098 | 114.95899 | 13012 ft | 344 kts | 266° |
| 2026-04-29 13:30 | 22.27010 | 114.93333 | 12439 ft | 340 kts | 266° |
| 2026-04-29 13:30 | 22.26926 | 114.90784 | 12074 ft | 341 kts | 267° |
| 2026-04-29 13:30 | 22.26842 | 114.88244 | 11827 ft | 333 kts | 266° |
| 2026-04-29 13:31 | 22.26760 | 114.85796 | 11578 ft | 318 kts | 266° |
| 2026-04-29 13:31 | 22.26682 | 114.83461 | 11340 ft | 304 kts | 266° |
| 2026-04-29 13:31 | 22.26607 | 114.81242 | 11183 ft | 289 kts | 266° |
| 2026-04-29 13:31 | 22.26533 | 114.79121 | 11043 ft | 275 kts | 266° |
| 2026-04-29 13:32 | 22.26308 | 114.77101 | 10984 ft | 272 kts | 259° |
| 2026-04-29 13:32 | 22.25936 | 114.75082 | 10973 ft | 275 kts | 258° |
| 2026-04-29 13:32 | 22.25536 | 114.73054 | 10972 ft | 276 kts | 258° |
| 2026-04-29 13:32 | 22.25137 | 114.71052 | 10970 ft | 276 kts | 258° |
| 2026-04-29 13:33 | 22.24736 | 114.69032 | 10897 ft | 272 kts | 258° |
| 2026-04-29 13:33 | 22.24338 | 114.67028 | 10387 ft | 274 kts | 258° |
| 2026-04-29 13:33 | 22.23935 | 114.65005 | 9849 ft | 276 kts | 258° |
| 2026-04-29 13:33 | 22.23557 | 114.63112 | 9325 ft | 277 kts | 258° |
| 2026-04-29 13:34 | 22.23158 | 114.61106 | 8825 ft | 276 kts | 258° |
| 2026-04-29 13:34 | 22.22759 | 114.59105 | 8462 ft | 270 kts | 258° |
| 2026-04-29 13:34 | 22.22366 | 114.57134 | 8189 ft | 267 kts | 258° |
| 2026-04-29 13:34 | 22.21976 | 114.55177 | 7940 ft | 267 kts | 258° |
| 2026-04-29 13:35 | 22.21585 | 114.53217 | 7692 ft | 267 kts | 258° |
| 2026-04-29 13:35 | 22.21193 | 114.51259 | 7434 ft | 266 kts | 258° |
| 2026-04-29 13:35 | 22.20809 | 114.49336 | 7178 ft | 264 kts | 258° |
| 2026-04-29 13:35 | 22.20422 | 114.47396 | 6922 ft | 264 kts | 257° |
| 2026-04-29 13:36 | 22.20035 | 114.45465 | 6665 ft | 263 kts | 258° |
| 2026-04-29 13:36 | 22.19664 | 114.43535 | 6408 ft | 262 kts | 259° |
| 2026-04-29 13:36 | 22.19655 | 114.41569 | 6143 ft | 264 kts | 279° |
| 2026-04-29 13:36 | 22.20320 | 114.39947 | 5942 ft | 268 kts | 304° |
| 2026-04-29 13:37 | 22.21788 | 114.38640 | 5940 ft | 276 kts | 329° |
| 2026-04-29 13:37 | 22.23558 | 114.37887 | 5943 ft | 278 kts | 338° |
| 2026-04-29 13:37 | 22.25395 | 114.37239 | 5944 ft | 278 kts | 338° |
| 2026-04-29 13:37 | 22.27233 | 114.36592 | 5944 ft | 278 kts | 338° |
| 2026-04-29 13:38 | 22.29071 | 114.35933 | 5943 ft | 277 kts | 338° |
| 2026-04-29 13:38 | 22.30868 | 114.35281 | 5843 ft | 278 kts | 337° |
| 2026-04-29 13:38 | 22.32697 | 114.34611 | 5515 ft | 276 kts | 337° |
| 2026-04-29 13:38 | 22.34508 | 114.33948 | 5176 ft | 270 kts | 337° |
| 2026-04-29 13:39 | 22.36232 | 114.33321 | 4854 ft | 253 kts | 337° |
| 2026-04-29 13:39 | 22.37872 | 114.32702 | 4578 ft | 247 kts | 335° |
| 2026-04-29 13:39 | 22.39345 | 114.31777 | 4508 ft | 243 kts | 316° |
| 2026-04-29 13:39 | 22.40306 | 114.30401 | 4514 ft | 224 kts | 293° |
| 2026-04-29 13:40 | 22.40748 | 114.28820 | 4518 ft | 214 kts | 281° |
| 2026-04-29 13:40 | 22.41025 | 114.27276 | 4516 ft | 205 kts | 279° |
| 2026-04-29 13:40 | 22.41270 | 114.25782 | 4520 ft | 205 kts | 278° |
| 2026-04-29 13:40 | 22.41505 | 114.24255 | 4504 ft | 202 kts | 277° |
| 2026-04-29 13:41 | 22.41557 | 114.22797 | 4515 ft | 188 kts | 265° |
| 2026-04-29 13:41 | 22.41291 | 114.21452 | 4519 ft | 180 kts | 254° |
| 2026-04-29 13:41 | 22.40891 | 114.20163 | 4520 ft | 180 kts | 252° |
| 2026-04-29 13:41 | 22.40477 | 114.18901 | 4543 ft | 177 kts | 252° |
| 2026-04-29 13:42 | 22.40064 | 114.17633 | 4525 ft | 179 kts | 252° |
| 2026-04-29 13:42 | 22.39642 | 114.16356 | 4519 ft | 180 kts | 251° |
| 2026-04-29 13:42 | 22.39214 | 114.15080 | 4515 ft | 181 kts | 251° |
| 2026-04-29 13:42 | 22.38790 | 114.13817 | 4526 ft | 182 kts | 251° |
| 2026-04-29 13:43 | 22.38381 | 114.12562 | 4519 ft | 172 kts | 251° |
| 2026-04-29 13:43 | 22.37991 | 114.11363 | 4528 ft | 168 kts | 251° |
| 2026-04-29 13:43 | 22.37612 | 114.10173 | 4514 ft | 166 kts | 252° |
| 2026-04-29 13:43 | 22.37241 | 114.08993 | 4524 ft | 167 kts | 252° |
| 2026-04-29 13:44 | 22.36856 | 114.07796 | 4510 ft | 167 kts | 252° |
| 2026-04-29 13:44 | 22.36500 | 114.06637 | 4527 ft | 160 kts | 252° |
| 2026-04-29 13:44 | 22.36136 | 114.05507 | 4514 ft | 156 kts | 252° |
| 2026-04-29 13:44 | 22.35786 | 114.04416 | 4230 ft | 152 kts | 252° |
| 2026-04-29 13:45 | 22.35436 | 114.03345 | 3876 ft | 150 kts | 253° |
| 2026-04-29 13:45 | 22.35096 | 114.02291 | 3508 ft | 149 kts | 253° |
| 2026-04-29 13:45 | 22.34747 | 114.01205 | 3047 ft | 160 kts | 254° |
| 2026-04-29 13:45 | 22.34366 | 114.00019 | 2480 ft | 172 kts | 255° |
| 2026-04-29 13:46 | 22.33969 | 113.98804 | 2076 ft | 170 kts | 256° |
| 2026-04-29 13:46 | 22.33622 | 113.97729 | 1617 ft | 171 kts | 256° |
| 2026-04-29 13:46 | 22.33240 | 113.96531 | 1143 ft | 168 kts | 256° |
| 2026-04-29 13:46 | 22.32881 | 113.95383 | 808 ft | 158 kts | 256° |
| 2026-04-29 13:47 | 22.32536 | 113.94251 | 467 ft | 157 kts | 256° |
| 2026-04-29 13:47 | 22.32170 | 113.93150 | 121 ft | 154 kts | 256° |
| 2026-04-29 13:47 | 22.31846 | 113.92123 | 249 ft | 162 kts | 256° |
| 2026-04-29 13:47 | 22.31450 | 113.90793 | 880 ft | 189 kts | 256° |
| 2026-04-29 13:48 | 22.31017 | 113.89445 | 1707 ft | 200 kts | 255° |
| 2026-04-29 13:48 | 22.30514 | 113.87928 | 2204 ft | 222 kts | 252° |
| 2026-04-29 13:48 | 22.30237 | 113.86337 | 2794 ft | 205 kts | 279° |
| 2026-04-29 13:48 | 22.30825 | 113.85038 | 3008 ft | 189 kts | 320° |
| 2026-04-29 13:49 | 22.31982 | 113.84450 | 3041 ft | 184 kts | 345° |
| 2026-04-29 13:49 | 22.33220 | 113.84091 | 3023 ft | 184 kts | 346° |
| 2026-04-29 13:49 | 22.34443 | 113.83716 | 3020 ft | 183 kts | 346° |
| 2026-04-29 13:49 | 22.35706 | 113.83557 | 3018 ft | 187 kts | 2° |
| 2026-04-29 13:50 | 22.37010 | 113.83987 | 3010 ft | 207 kts | 28° |
| 2026-04-29 13:50 | 22.38025 | 113.85096 | 3008 ft | 215 kts | 53° |
| 2026-04-29 13:50 | 22.38796 | 113.86490 | 3004 ft | 217 kts | 58° |
| 2026-04-29 13:50 | 22.39523 | 113.87906 | 3010 ft | 214 kts | 58° |
| 2026-04-29 13:51 | 22.40256 | 113.89299 | 3022 ft | 213 kts | 57° |
| 2026-04-29 13:51 | 22.40906 | 113.90733 | 3018 ft | 212 kts | 63° |
| 2026-04-29 13:51 | 22.41487 | 113.92220 | 3019 ft | 222 kts | 64° |
| 2026-04-29 13:51 | 22.42100 | 113.93870 | 3175 ft | 250 kts | 65° |
| 2026-04-29 13:52 | 22.42774 | 113.95669 | 3631 ft | 264 kts | 66° |
| 2026-04-29 13:52 | 22.43483 | 113.97542 | 4085 ft | 276 kts | 65° |
| 2026-04-29 13:52 | 22.44230 | 113.99475 | 4498 ft | 286 kts | 65° |
| 2026-04-29 13:52 | 22.45021 | 114.01510 | 4759 ft | 303 kts | 65° |
| 2026-04-29 13:53 | 22.45853 | 114.03663 | 4944 ft | 316 kts | 66° |
| 2026-04-29 13:53 | 22.46698 | 114.05871 | 5013 ft | 321 kts | 66° |
| 2026-04-29 13:53 | 22.47554 | 114.08118 | 5016 ft | 322 kts | 66° |
| 2026-04-29 13:53 | 22.48404 | 114.10357 | 5020 ft | 320 kts | 66° |
| 2026-04-29 13:54 | 22.49223 | 114.12513 | 5031 ft | 298 kts | 66° |
| 2026-04-29 13:54 | 22.49997 | 114.14549 | 5031 ft | 289 kts | 66° |
| 2026-04-29 13:54 | 22.50756 | 114.16549 | 4997 ft | 284 kts | 66° |
| 2026-04-29 13:54 | 22.51473 | 114.18426 | 4901 ft | 255 kts | 66° |
| 2026-04-29 13:55 | 22.52095 | 114.20133 | 4873 ft | 239 kts | 71° |
| 2026-04-29 13:55 | 22.52329 | 114.21887 | 4872 ft | 227 kts | 94° |
| 2026-04-29 13:55 | 22.51909 | 114.23417 | 4896 ft | 207 kts | 123° |
| 2026-04-29 13:55 | 22.50935 | 114.24508 | 4865 ft | 203 kts | 153° |
| 2026-04-29 13:56 | 22.49617 | 114.24879 | 4753 ft | 195 kts | 185° |
| 2026-04-29 13:56 | 22.48291 | 114.24661 | 4646 ft | 192 kts | 196° |
| 2026-04-29 13:56 | 22.46987 | 114.24324 | 4538 ft | 192 kts | 197° |
| 2026-04-29 13:56 | 22.45688 | 114.23985 | 4517 ft | 193 kts | 197° |
| 2026-04-29 13:57 | 22.44379 | 114.23648 | 4517 ft | 193 kts | 198° |
| 2026-04-29 13:57 | 22.43088 | 114.23281 | 4511 ft | 191 kts | 202° |
| 2026-04-29 13:57 | 22.41941 | 114.22605 | 4514 ft | 186 kts | 224° |
| 2026-04-29 13:57 | 22.41398 | 114.21898 | 4475 ft | 183 kts | 241° |
| 2026-04-29 13:58 | 22.40770 | 114.20216 | 4364 ft | 179 kts | 252° |
| 2026-04-29 13:58 | 22.40382 | 114.18940 | 4270 ft | 179 kts | 253° |